Waterloo, New York
Current Conditions -  °F | °C
As of 10:53 AM on Saturday 20 Dec 2014 (Local Time) from KPEO Reporting Station
Overcast Overcast  
Wind Chill: 22°   Ceiling: 1900
Heat Index: 28°   Visibility: 10mi
Dew Point: 20°   Wind: 6mph
Humidity: 72%   Direction: NA
Pressure: 30.27"   Gusts: NA
Location:  42.9°N, 76.86°W
Report Text: KPEO 201553Z AUTO VRB05KT 10SM OVC019 M02/M07 A3027 RMK AO2 SLP264 T10221067
Loading
Personal Weather Stations






























Interactive Weather Map New forecast layout! Learn more

10-Day Weather Forecast

Advertisements
Track Severe Weather on mobile